createdAt,value
2024-04-18T00:01:54.081Z,1.10
2024-04-18T00:04:21.273Z,1.15
2024-04-18T00:06:59.853Z,0.90
2024-04-18T00:09:27.036Z,1.08
2024-04-18T00:11:54.381Z,1.27
2024-04-18T00:14:21.545Z,0.80
2024-04-18T00:16:48.619Z,1.10
2024-04-18T00:19:16.903Z,0.80
2024-04-18T00:21:59.643Z,1.00
2024-04-18T00:24:29.787Z,1.10
2024-04-18T00:26:58.160Z,1.15
2024-04-18T00:29:37.544Z,1.02
2024-04-18T00:32:15.124Z,1.30
2024-04-18T00:35:11.325Z,1.02
2024-04-18T00:37:38.505Z,1.00
2024-04-18T00:40:06.097Z,1.42
2024-04-18T00:42:36.415Z,1.15
2024-04-18T00:45:07.101Z,1.27
2024-04-18T00:47:48.694Z,1.15
2024-04-18T00:50:18.612Z,1.13
2024-04-18T00:52:47.507Z,1.10
2024-04-18T00:55:31.199Z,1.20
2024-04-18T00:58:13.827Z,1.20
2024-04-18T01:00:42.121Z,1.20
2024-04-18T01:03:27.870Z,1.30
2024-04-18T01:06:13.254Z,1.00
2024-04-18T01:09:01.727Z,1.30
2024-04-18T01:11:32.290Z,1.20
2024-04-18T01:14:12.705Z,1.08
2024-04-18T01:16:58.347Z,1.33
2024-04-18T01:19:25.588Z,1.35
2024-04-18T01:21:53.945Z,1.20
2024-04-18T01:24:21.203Z,0.90
2024-04-18T01:26:48.162Z,1.30
2024-04-18T01:29:15.264Z,1.10
2024-04-18T01:32:01.064Z,1.17
2024-04-18T01:34:30.041Z,1.23
2024-04-18T01:37:15.295Z,1.25
2024-04-18T01:39:45.328Z,1.27
2024-04-18T01:42:12.687Z,1.20
2024-04-18T01:44:48.614Z,1.20
2024-04-18T01:47:34.626Z,1.33
2024-04-18T01:50:08.316Z,1.40
2024-04-18T01:52:35.516Z,1.00
2024-04-18T01:55:09.228Z,1.38
2024-04-18T01:57:38.352Z,1.10
2024-04-18T02:00:24.233Z,1.20
2024-04-18T02:02:51.525Z,1.23
2024-04-18T02:05:39.797Z,1.20
2024-04-18T02:08:16.692Z,1.55
2024-04-18T02:10:47.723Z,1.05
2024-04-18T02:13:36.216Z,1.17
2024-04-18T02:16:04.322Z,1.40
2024-04-18T02:18:50.281Z,1.30
2024-04-18T02:21:17.707Z,1.42
2024-04-18T02:23:53.814Z,1.38
2024-04-18T02:26:21.243Z,1.45
2024-04-18T02:28:48.205Z,1.52
2024-04-18T02:31:18.383Z,1.50
2024-04-18T02:33:51.372Z,1.50
2024-04-18T02:36:18.854Z,1.67
2024-04-18T02:38:46.321Z,1.92
2024-04-18T02:41:13.448Z,1.45
2024-04-18T02:43:55.034Z,1.75
2024-04-18T02:49:08.522Z,1.17
2024-04-18T02:51:54.995Z,1.40
2024-04-18T02:54:40.672Z,1.65
2024-04-18T02:57:07.649Z,1.50
2024-04-18T02:59:34.617Z,1.50
2024-04-18T03:02:21.669Z,1.60
2024-04-18T03:04:48.725Z,1.35
2024-04-18T03:07:15.661Z,1.73
2024-04-18T03:09:48.544Z,1.38
2024-04-18T03:12:28.321Z,1.80
2024-04-18T03:15:20.729Z,1.88
2024-04-18T03:18:06.815Z,2.00
2024-04-18T03:20:35.089Z,1.63
2024-04-18T03:23:10.772Z,1.60
2024-04-18T03:26:13.471Z,1.58
2024-04-18T03:28:40.389Z,1.55
2024-04-18T03:31:07.327Z,1.25
2024-04-18T03:33:35.123Z,1.50
2024-04-18T03:36:05.971Z,2.03
2024-04-18T03:38:33.070Z,1.80
2024-04-18T03:41:00.493Z,1.92
2024-04-18T03:43:27.565Z,1.75
2024-04-18T03:46:02.204Z,1.60
2024-04-18T03:48:30.611Z,1.83
2024-04-18T03:50:57.971Z,1.77
2024-04-18T03:53:44.930Z,2.10
2024-04-18T03:59:10.609Z,1.90
2024-04-18T04:01:37.807Z,2.20
2024-04-18T04:04:04.891Z,2.00
2024-04-18T04:06:39.115Z,1.98
2024-04-18T04:09:06.102Z,1.85
2024-04-18T04:11:33.056Z,2.20
2024-04-18T04:14:01.120Z,2.03
2024-04-18T04:16:48.337Z,1.90
2024-04-18T04:19:18.480Z,1.67
2024-04-18T04:21:48.830Z,2.03
2024-04-18T04:24:16.193Z,1.83
2024-04-18T04:26:49.386Z,2.13
2024-04-18T04:29:16.754Z,2.08
2024-04-18T04:31:43.758Z,2.03
2024-04-18T04:34:14.349Z,2.17
2024-04-18T04:36:41.438Z,2.55
2024-04-18T04:39:08.491Z,2.38
2024-04-18T04:41:39.911Z,2.17
2024-04-18T04:44:06.965Z,2.22
2024-04-18T04:46:50.199Z,2.45
2024-04-18T04:49:17.263Z,2.33
2024-04-18T04:52:07.556Z,2.20
2024-04-18T04:54:43.366Z,2.53
2024-04-18T04:57:12.054Z,2.50
2024-04-18T04:59:39.236Z,2.22
2024-04-18T05:02:06.997Z,2.25
2024-04-18T05:04:51.968Z,3.10
2024-04-18T05:07:31.662Z,2.40
2024-04-18T05:10:19.327Z,2.95
2024-04-18T05:12:47.134Z,2.70
2024-04-18T05:15:35.229Z,2.38
2024-04-18T05:18:02.670Z,2.50
2024-04-18T05:20:29.694Z,2.80
2024-04-18T05:22:56.723Z,2.50
2024-04-18T05:25:24.154Z,2.60
2024-04-18T05:28:05.438Z,2.65
2024-04-18T05:30:54.517Z,2.90
2024-04-18T05:33:21.801Z,2.60
2024-04-18T05:35:48.871Z,2.40
2024-04-18T05:38:17.381Z,2.42
2024-04-18T05:40:45.593Z,2.58
2024-04-18T05:43:14.897Z,2.70
2024-04-18T05:48:19.175Z,2.80
2024-04-18T05:50:46.331Z,2.83
2024-04-18T05:53:22.080Z,3.08
2024-04-18T05:55:52.874Z,2.95
2024-04-18T05:58:19.937Z,3.25
2024-04-18T06:00:56.655Z,2.95
2024-04-18T06:03:25.558Z,2.58
2024-04-18T06:05:53.802Z,2.58
2024-04-18T06:08:21.062Z,3.17
2024-04-18T06:10:48.174Z,2.78
2024-04-18T06:13:19.645Z,2.70
2024-04-18T06:15:48.690Z,2.40
2024-04-18T06:18:16.116Z,2.60
2024-04-18T06:20:44.546Z,2.88
2024-04-18T06:23:12.115Z,2.33
2024-04-18T06:25:39.465Z,1.77
2024-04-18T06:28:11.243Z,2.10
2024-04-18T06:30:39.615Z,2.50
2024-04-18T06:33:11.048Z,2.78
2024-04-18T06:35:38.095Z,2.78
2024-04-18T06:38:05.075Z,2.70
2024-04-18T06:40:32.192Z,2.90
2024-04-18T06:42:59.313Z,3.35
2024-04-18T06:45:26.654Z,2.88
2024-04-18T06:47:53.910Z,3.15
2024-04-18T06:50:24.207Z,3.03
2024-04-18T06:52:53.419Z,2.95
2024-04-18T06:55:20.406Z,3.00
2024-04-18T06:57:47.544Z,3.17
2024-04-18T07:00:14.955Z,3.35
2024-04-18T07:02:42.283Z,3.20
2024-04-18T07:05:27.932Z,3.20
2024-04-18T07:08:15.417Z,2.70
2024-04-18T07:10:42.845Z,2.85
2024-04-18T07:13:33.632Z,2.80
2024-04-18T07:18:55.075Z,2.70
2024-04-18T07:21:22.258Z,1.88
2024-04-18T07:23:49.265Z,1.70
2024-04-18T07:26:36.311Z,1.80
2024-04-18T07:29:04.783Z,1.75
2024-04-18T07:31:32.022Z,2.10
2024-04-18T07:34:15.627Z,2.10
2024-04-18T07:36:47.304Z,2.20
2024-04-18T07:39:14.418Z,2.20
2024-04-18T07:41:41.574Z,2.40
2024-04-18T07:44:10.945Z,2.40
2024-04-18T07:46:38.263Z,2.20
2024-04-18T07:49:05.460Z,1.75
2024-04-18T07:51:32.625Z,1.85
2024-04-18T07:53:59.724Z,1.80
2024-04-18T07:56:27.039Z,1.52
2024-04-18T07:58:55.157Z,1.42
2024-04-18T08:01:24.592Z,1.38
2024-04-18T08:04:08.200Z,1.80
2024-04-18T08:06:42.529Z,1.52
2024-04-18T08:09:23.522Z,1.70
2024-04-18T08:12:18.073Z,1.42
2024-04-18T08:14:43.038Z,1.98
2024-04-18T08:17:12.646Z,2.03
2024-04-18T08:19:39.848Z,2.15
2024-04-18T08:22:06.873Z,2.22
2024-04-18T08:24:37.156Z,2.65
2024-04-18T08:29:34.680Z,3.10
2024-04-18T08:32:02.582Z,2.95
2024-04-18T08:34:32.547Z,2.75
2024-04-18T08:37:00.437Z,3.08
2024-04-18T08:39:30.452Z,2.60
2024-04-18T08:41:58.260Z,2.67
2024-04-18T08:44:26.689Z,2.38
2024-04-18T08:46:53.817Z,2.25
2024-04-18T08:49:21.798Z,2.08
2024-04-18T08:51:50.462Z,2.40
2024-04-18T08:54:18.429Z,2.25
2024-04-18T08:56:51.590Z,2.05
2024-04-18T09:01:48.418Z,2.10
2024-04-18T09:04:15.443Z,2.22
2024-04-18T09:06:42.524Z,1.98
2024-04-18T09:09:21.363Z,1.70
2024-04-18T09:11:48.539Z,1.83
2024-04-18T09:14:16.036Z,2.20
2024-04-18T09:16:44.615Z,2.10
2024-04-18T09:19:13.586Z,2.00
2024-04-18T09:21:41.877Z,2.25
2024-04-18T09:24:09.035Z,1.95
2024-04-18T09:26:36.185Z,2.10
2024-04-18T09:29:03.287Z,2.05
2024-04-18T09:31:37.993Z,2.00
2024-04-18T09:34:14.605Z,2.45
2024-04-18T09:36:42.620Z,2.13
2024-04-18T09:39:19.991Z,2.08
2024-04-18T09:41:54.585Z,2.25
2024-04-18T09:44:30.137Z,2.10
2024-04-18T09:46:59.353Z,2.22
2024-04-18T09:49:27.339Z,2.20
2024-04-18T09:51:57.094Z,2.60
2024-04-18T09:54:24.433Z,2.83
2024-04-18T09:56:53.084Z,2.72
2024-04-18T09:59:22.111Z,2.55
2024-04-18T10:01:50.144Z,2.50
2024-04-18T10:04:17.527Z,2.78
2024-04-18T10:06:47.645Z,2.50
2024-04-18T10:09:17.066Z,2.30
2024-04-18T10:11:45.770Z,3.00
2024-04-18T10:14:13.267Z,2.65
2024-04-18T10:16:51.293Z,2.25
2024-04-18T10:19:22.994Z,2.20
2024-04-18T10:22:06.408Z,2.25
2024-04-18T10:24:42.525Z,2.28
2024-04-18T10:27:12.503Z,2.15
2024-04-18T10:29:40.057Z,2.22
2024-04-18T10:32:08.983Z,2.50
2024-04-18T10:34:36.068Z,2.42
2024-04-18T10:37:07.796Z,2.40
2024-04-18T10:39:41.555Z,2.00
2024-04-18T10:42:10.604Z,2.60
2024-04-18T10:44:38.890Z,2.03
2024-04-18T10:47:06.374Z,2.42
2024-04-18T10:49:39.561Z,2.20
2024-04-18T10:52:12.179Z,2.28
2024-04-18T10:54:39.473Z,3.10
2024-04-18T10:57:06.664Z,2.65
2024-04-18T10:59:36.603Z,3.08
2024-04-18T11:02:11.434Z,3.10
2024-04-18T11:04:38.521Z,2.70
2024-04-18T11:07:05.794Z,2.60
2024-04-18T11:09:40.383Z,2.85
2024-04-18T11:12:08.516Z,2.38
2024-04-18T11:14:35.734Z,2.60
2024-04-18T11:17:02.983Z,1.98
2024-04-18T11:19:31.152Z,2.35
2024-04-18T11:22:02.115Z,2.00
2024-04-18T11:24:30.793Z,1.98
2024-04-18T11:26:58.110Z,2.97
2024-04-18T11:29:29.317Z,2.90
2024-04-18T11:32:12.874Z,3.88
2024-04-18T11:34:40.088Z,4.13
2024-04-18T11:37:12.870Z,5.15
2024-04-18T11:39:43.539Z,4.30
2024-04-18T11:42:10.972Z,4.90
2024-04-18T11:44:38.066Z,3.90
2024-04-18T11:47:05.771Z,4.60
2024-04-18T11:49:37.880Z,4.63
2024-04-18T11:52:05.931Z,4.28
2024-04-18T11:54:33.917Z,5.05
2024-04-18T11:57:02.489Z,4.00
2024-04-18T11:59:41.349Z,4.10
2024-04-18T12:02:11.394Z,3.10
2024-04-18T12:05:05.180Z,2.75
2024-04-18T12:07:55.415Z,2.80
2024-04-18T12:10:32.159Z,3.33
2024-04-18T12:13:10.787Z,2.85
2024-04-18T12:21:40.044Z,10.00
2024-04-18T12:24:07.419Z,4.82
2024-04-18T12:26:37.510Z,3.50
2024-04-18T12:29:04.593Z,3.22
2024-04-18T12:31:31.648Z,3.03
2024-04-18T12:33:58.660Z,2.60
2024-04-18T12:36:26.697Z,2.50
2024-04-18T12:38:53.929Z,2.60
2024-04-18T12:41:21.124Z,1.92
2024-04-18T12:43:48.145Z,2.47
2024-04-18T12:46:33.755Z,2.60
2024-04-18T12:49:09.583Z,2.28
2024-04-18T12:51:36.672Z,2.05
2024-04-18T12:54:03.814Z,2.58
2024-04-18T12:56:49.459Z,2.72
2024-04-18T12:59:23.513Z,3.15
2024-04-18T13:01:50.496Z,3.03
2024-04-18T13:04:20.792Z,3.00
2024-04-18T13:06:50.197Z,2.42
2024-04-18T13:09:29.645Z,2.80
2024-04-18T13:12:05.818Z,3.05
2024-04-18T13:14:51.763Z,3.53
2024-04-18T13:17:21.690Z,3.05
2024-04-18T13:19:48.874Z,3.13
2024-04-18T13:22:16.287Z,3.00
2024-04-18T13:24:43.409Z,2.63
2024-04-18T13:27:27.983Z,3.15
2024-04-18T13:29:56.162Z,3.20
2024-04-18T13:32:33.749Z,2.88
2024-04-18T13:35:00.752Z,2.85
2024-04-18T13:37:27.741Z,2.63
2024-04-18T13:40:13.403Z,2.10
2024-04-18T13:42:57.115Z,2.70
2024-04-18T13:45:34.089Z,2.90
2024-04-18T13:48:02.886Z,2.65
2024-04-18T13:50:42.337Z,2.50
2024-04-18T13:53:09.323Z,2.35
2024-04-18T13:55:44.972Z,2.67
2024-04-18T13:58:12.084Z,2.67
2024-04-18T14:01:02.038Z,2.78
2024-04-18T14:03:29.884Z,3.25
2024-04-18T14:06:04.629Z,3.33
2024-04-18T14:08:39.098Z,3.20
2024-04-18T14:11:25.820Z,2.95
2024-04-18T14:14:08.847Z,3.35
2024-04-18T14:16:58.432Z,3.10
2024-04-18T14:19:31.166Z,3.33
2024-04-18T14:22:04.474Z,3.22
2024-04-18T14:24:31.477Z,3.58
2024-04-18T14:26:58.424Z,3.05
2024-04-18T14:29:25.645Z,3.88
2024-04-18T14:32:01.570Z,3.60
2024-04-18T14:34:48.180Z,3.67
2024-04-18T14:37:17.300Z,3.83
2024-04-18T14:39:44.642Z,3.60
2024-04-18T14:42:11.841Z,2.20
2024-04-18T14:44:38.794Z,2.20
2024-04-18T14:47:15.912Z,1.80
2024-04-18T14:50:03.687Z,1.92
2024-04-18T14:52:35.078Z,1.88
2024-04-18T14:55:26.101Z,1.88
2024-04-18T14:58:02.071Z,1.85
2024-04-18T15:00:52.481Z,1.98
2024-04-18T15:03:20.404Z,1.60
2024-04-18T15:05:54.904Z,1.98
2024-04-18T15:08:44.080Z,1.60
2024-04-18T15:11:23.532Z,1.23
2024-04-18T15:14:06.344Z,0.90
2024-04-18T15:16:34.029Z,1.20
2024-04-18T15:19:01.499Z,1.80
2024-04-18T15:21:48.654Z,1.30
2024-04-18T15:24:15.785Z,1.52
2024-04-18T15:27:03.645Z,1.13
2024-04-18T15:29:32.161Z,1.00
2024-04-18T15:32:18.260Z,1.10
2024-04-18T15:34:47.766Z,1.00
2024-04-18T15:37:34.608Z,1.45
2024-04-18T15:40:01.872Z,1.40
2024-04-18T15:42:28.916Z,1.60
2024-04-18T15:44:55.885Z,1.52
2024-04-18T15:47:34.323Z,2.00
2024-04-18T15:50:24.172Z,1.85
2024-04-18T15:52:51.114Z,1.90
2024-04-18T15:55:33.587Z,2.45
2024-04-18T15:58:20.767Z,2.00
2024-04-18T16:00:47.783Z,2.85
2024-04-18T16:03:33.399Z,2.60
2024-04-18T16:06:19.406Z,2.40
2024-04-18T16:09:06.375Z,2.60
2024-04-18T16:11:40.465Z,2.90
2024-04-18T16:14:27.957Z,2.83
2024-04-18T16:16:54.951Z,2.65
2024-04-18T16:19:37.944Z,2.38
2024-04-18T16:22:05.638Z,2.90
2024-04-18T16:24:49.078Z,2.10
2024-04-18T16:27:16.687Z,1.65
2024-04-18T16:29:58.298Z,1.90
2024-04-18T16:32:40.304Z,1.77
2024-04-18T16:35:08.158Z,1.52
2024-04-18T16:37:39.389Z,1.65
2024-04-18T16:40:15.878Z,3.88
2024-04-18T16:42:58.610Z,2.10
2024-04-18T16:45:25.765Z,2.75
2024-04-18T16:47:53.021Z,1.65
2024-04-18T16:50:20.052Z,1.70
2024-04-18T16:52:51.041Z,1.60
2024-04-18T16:55:36.827Z,2.72
2024-04-18T16:58:16.640Z,3.72
2024-04-18T17:00:58.450Z,3.80
2024-04-18T17:03:26.981Z,2.63
2024-04-18T17:06:04.944Z,2.38
2024-04-18T17:08:33.085Z,2.25
2024-04-18T17:11:00.366Z,2.22
2024-04-18T17:13:46.212Z,1.80
2024-04-18T17:16:13.259Z,1.73
2024-04-18T17:18:46.408Z,2.00
2024-04-18T17:21:13.847Z,1.85
2024-04-18T17:23:40.810Z,1.48
2024-04-18T17:26:07.856Z,1.52
2024-04-18T17:28:38.545Z,1.70
2024-04-18T17:31:06.224Z,2.03
2024-04-18T17:33:35.639Z,1.63
2024-04-18T17:36:02.944Z,1.88
2024-04-18T17:38:46.233Z,1.88
2024-04-18T17:41:32.298Z,1.83
2024-04-18T17:44:18.017Z,3.30
2024-04-18T17:46:57.944Z,2.40
2024-04-18T17:49:25.614Z,3.03
2024-04-18T17:51:52.701Z,2.92
2024-04-18T17:54:20.026Z,2.80
2024-04-18T17:56:47.286Z,3.05
2024-04-18T17:59:15.635Z,2.67
2024-04-18T18:01:44.099Z,2.92
2024-04-18T18:04:12.753Z,2.55
2024-04-18T18:06:40.109Z,2.88
2024-04-18T18:09:07.422Z,2.70
2024-04-18T18:11:34.452Z,3.10
2024-04-18T18:14:03.257Z,2.70
2024-04-18T18:16:50.377Z,2.58
2024-04-18T18:19:17.511Z,2.65
2024-04-18T18:21:56.803Z,2.83
2024-04-18T18:24:23.980Z,2.70
2024-04-18T18:26:50.935Z,3.45
2024-04-18T18:29:23.202Z,3.30
2024-04-18T18:32:06.597Z,4.50
2024-04-18T18:34:36.120Z,3.50
2024-04-18T18:37:03.129Z,3.38
2024-04-18T18:39:30.197Z,4.00
2024-04-18T18:41:57.365Z,4.22
2024-04-18T18:44:24.387Z,4.82
2024-04-18T18:46:51.402Z,6.32
2024-04-18T18:49:18.565Z,5.22
2024-04-18T18:51:46.018Z,6.07
2024-04-18T18:54:13.557Z,6.15
2024-04-18T18:56:41.151Z,31.60
2024-04-18T18:59:26.971Z,9.57
2024-04-18T19:01:53.980Z,5.10
2024-04-18T19:04:22.589Z,5.68
2024-04-18T19:06:50.195Z,7.38
2024-04-18T19:09:17.646Z,6.45
2024-04-18T19:11:44.673Z,6.13
2024-04-18T19:14:13.220Z,7.10
2024-04-18T19:17:02.821Z,7.28
2024-04-18T19:19:30.054Z,6.53
2024-04-18T19:21:57.017Z,5.53
2024-04-18T19:24:24.051Z,5.22
2024-04-18T19:29:31.761Z,4.50
2024-04-18T19:32:07.079Z,4.80
2024-04-18T19:34:34.039Z,4.70
2024-04-18T19:37:01.129Z,4.13
2024-04-18T19:39:28.317Z,4.60
2024-04-18T19:41:58.212Z,4.80
2024-04-18T19:44:25.172Z,5.35
2024-04-18T19:46:52.271Z,5.47
2024-04-18T19:49:19.199Z,8.57
2024-04-18T19:52:00.736Z,7.45
2024-04-18T19:54:29.725Z,6.25
2024-04-18T19:56:56.935Z,5.13
2024-04-18T19:59:23.947Z,5.22
2024-04-18T20:01:51.013Z,4.80
2024-04-18T20:04:18.510Z,3.78
2024-04-18T20:06:45.609Z,4.47
2024-04-18T20:09:12.743Z,4.03
2024-04-18T20:11:39.994Z,4.30
2024-04-18T20:14:07.424Z,4.28
2024-04-18T20:16:35.328Z,3.92
2024-04-18T20:19:15.506Z,4.57
2024-04-18T20:21:44.450Z,4.20
2024-04-18T20:24:13.302Z,4.18
2024-04-18T20:27:00.697Z,4.05
2024-04-18T20:29:46.257Z,4.85
2024-04-18T20:32:26.503Z,4.22
2024-04-18T20:34:54.419Z,4.40
2024-04-18T20:37:21.848Z,4.13
2024-04-18T20:39:49.012Z,4.10
2024-04-18T20:42:16.426Z,4.70
2024-04-18T20:45:04.507Z,4.80
2024-04-18T20:47:31.912Z,4.65
2024-04-18T20:49:59.028Z,5.70
2024-04-18T20:52:26.000Z,4.20
2024-04-18T20:54:53.004Z,4.93
2024-04-18T20:57:19.941Z,5.40
2024-04-18T20:59:47.097Z,5.43
2024-04-18T21:02:14.329Z,5.20
2024-04-18T21:04:41.811Z,4.78
2024-04-18T21:07:08.961Z,5.63
2024-04-18T21:09:36.899Z,5.18
2024-04-18T21:12:04.269Z,5.97
2024-04-18T21:14:31.484Z,6.25
2024-04-18T21:16:59.342Z,6.53
2024-04-18T21:19:26.587Z,7.43
2024-04-18T21:21:53.918Z,6.18
2024-04-18T21:24:21.178Z,6.07
2024-04-18T21:26:49.032Z,5.50
2024-04-18T21:29:16.824Z,5.55
2024-04-18T21:31:44.136Z,5.72
2024-04-18T21:34:12.559Z,5.60
2024-04-18T21:36:40.189Z,5.32
2024-04-18T21:39:08.075Z,5.65
2024-04-18T21:41:39.491Z,4.88
2024-04-18T21:44:06.679Z,5.50
2024-04-18T21:46:34.036Z,6.22
2024-04-18T21:49:01.418Z,4.90
2024-04-18T21:51:28.935Z,4.97
2024-04-18T21:53:56.179Z,4.97
2024-04-18T21:56:23.503Z,4.47
2024-04-18T21:58:53.830Z,4.40
2024-04-18T22:01:41.421Z,4.18
2024-04-18T22:04:09.340Z,4.57
2024-04-18T22:06:36.675Z,4.00
2024-04-18T22:09:03.902Z,4.20
2024-04-18T22:11:31.057Z,4.22
2024-04-18T22:13:58.293Z,3.88
2024-04-18T22:16:25.417Z,3.38
2024-04-18T22:18:52.741Z,3.72
2024-04-18T22:21:35.125Z,3.47
2024-04-18T22:24:02.986Z,3.60
2024-04-18T22:26:30.072Z,3.53
2024-04-18T22:28:57.389Z,3.40
2024-04-18T22:31:24.786Z,3.42
2024-04-18T22:33:52.301Z,3.28
2024-04-18T22:36:19.804Z,3.47
2024-04-18T22:38:47.010Z,3.40
2024-04-18T22:41:17.380Z,3.08
2024-04-18T22:43:44.709Z,2.90
2024-04-18T22:46:11.775Z,3.42
2024-04-18T22:48:39.309Z,3.28
2024-04-18T22:51:06.516Z,2.92
2024-04-18T22:53:33.709Z,3.30
2024-04-18T22:56:00.934Z,3.17
2024-04-18T22:58:28.330Z,2.70
2024-04-18T23:01:05.202Z,3.10
2024-04-18T23:03:32.741Z,2.75
2024-04-18T23:06:15.548Z,2.53
2024-04-18T23:08:45.739Z,2.50
2024-04-18T23:11:14.543Z,2.65
2024-04-18T23:13:41.958Z,2.90
2024-04-18T23:16:09.219Z,2.70
2024-04-18T23:18:36.663Z,3.00
2024-04-18T23:21:04.143Z,2.45
2024-04-18T23:23:34.805Z,2.60
2024-04-18T23:26:02.462Z,2.70
2024-04-18T23:28:29.618Z,2.40
2024-04-18T23:30:56.977Z,2.15
2024-04-18T23:33:26.833Z,2.38
2024-04-18T23:35:54.021Z,2.22
2024-04-18T23:38:21.135Z,2.40
2024-04-18T23:40:48.302Z,2.40
2024-04-18T23:43:15.402Z,2.75
2024-04-18T23:45:42.737Z,2.30
2024-04-18T23:48:10.678Z,2.58
2024-04-18T23:50:38.152Z,2.65
2024-04-18T23:53:05.660Z,2.40
2024-04-18T23:55:32.757Z,2.42
2024-04-18T23:58:00.582Z,2.70
